createdAt,value
2019-06-27T00:00:37.940Z,50.34
2019-06-27T00:03:05.681Z,50.96
2019-06-27T00:05:32.352Z,51.39
2019-06-27T00:07:58.785Z,51.94
2019-06-27T00:10:25.425Z,51.65
2019-06-27T00:12:51.758Z,51.03
2019-06-27T00:15:18.096Z,49.62
2019-06-27T00:17:45.746Z,49.86
2019-06-27T00:20:12.163Z,48.57
2019-06-27T00:22:41.068Z,47.50
2019-06-27T00:25:07.539Z,44.99
2019-06-27T00:27:33.888Z,43.68
2019-06-27T00:30:00.243Z,42.54
2019-06-27T00:32:26.982Z,42.14
2019-06-27T00:34:53.336Z,42.17
2019-06-27T00:37:19.638Z,42.09
2019-06-27T00:39:46.121Z,41.82
2019-06-27T00:42:12.436Z,42.01
2019-06-27T00:44:39.202Z,42.36
2019-06-27T00:47:05.512Z,42.71
2019-06-27T00:49:31.938Z,43.01
2019-06-27T00:51:58.657Z,42.83
2019-06-27T00:54:24.985Z,43.20
2019-06-27T00:56:51.518Z,42.28
2019-06-27T00:59:18.188Z,41.37
2019-06-27T01:01:44.527Z,39.91
2019-06-27T01:04:10.952Z,40.23
2019-06-27T01:06:37.675Z,38.93
2019-06-27T01:09:05.452Z,38.40
2019-06-27T01:11:32.179Z,37.77
2019-06-27T01:13:59.035Z,37.51
2019-06-27T01:16:25.338Z,37.40
2019-06-27T01:18:51.739Z,36.94
2019-06-27T01:21:18.074Z,36.49
2019-06-27T01:23:45.200Z,36.47
2019-06-27T01:26:11.658Z,35.61
2019-06-27T01:28:37.979Z,36.63
2019-06-27T01:31:04.345Z,36.49
2019-06-27T01:33:30.662Z,36.24
2019-06-27T01:35:57.116Z,35.75
2019-06-27T01:38:23.459Z,35.59
2019-06-27T01:40:49.890Z,35.77
2019-06-27T01:43:16.201Z,35.89
2019-06-27T01:45:54.249Z,34.76
2019-06-27T01:48:20.580Z,35.09
2019-06-27T01:50:46.971Z,35.67
2019-06-27T01:53:13.372Z,35.29
2019-06-27T01:55:39.711Z,34.83
2019-06-27T01:58:06.063Z,33.91
2019-06-27T02:00:32.399Z,34.32
2019-06-27T02:02:59.930Z,34.11
2019-06-27T02:05:26.839Z,34.49
2019-06-27T02:07:53.301Z,34.74
2019-06-27T02:10:20.355Z,35.00
2019-06-27T02:12:46.711Z,35.55
2019-06-27T02:15:13.850Z,35.46
2019-06-27T02:17:40.208Z,35.98
2019-06-27T02:20:08.368Z,36.45
2019-06-27T02:22:34.720Z,36.29
2019-06-27T02:25:01.155Z,36.67
2019-06-27T02:27:27.588Z,36.90
2019-06-27T02:29:53.929Z,37.26
2019-06-27T02:32:21.543Z,38.09
2019-06-27T02:34:47.914Z,38.48
2019-06-27T02:37:14.662Z,38.05
2019-06-27T02:39:42.351Z,38.19
2019-06-27T02:42:08.681Z,38.12
2019-06-27T02:44:35.310Z,37.88
2019-06-27T02:47:01.688Z,37.63
2019-06-27T02:49:28.038Z,38.14
2019-06-27T02:51:54.508Z,38.53
2019-06-27T02:54:20.868Z,38.51
2019-06-27T02:56:47.214Z,38.54
2019-06-27T02:59:13.564Z,38.99
2019-06-27T03:01:39.954Z,40.16
2019-06-27T03:04:06.569Z,41.04
2019-06-27T03:06:32.908Z,41.53
2019-06-27T03:08:59.217Z,42.69
2019-06-27T03:11:25.530Z,42.73
2019-06-27T03:13:51.860Z,43.25
2019-06-27T03:16:18.524Z,43.50
2019-06-27T03:18:44.927Z,43.66
2019-06-27T03:21:11.285Z,43.89
2019-06-27T03:23:37.662Z,44.19
2019-06-27T03:26:04.941Z,44.25
2019-06-27T03:28:49.711Z,44.29
2019-06-27T03:30:59.579Z,44.68
2019-06-27T03:33:26.243Z,45.42
2019-06-27T03:35:52.672Z,45.79
2019-06-27T03:38:19.018Z,45.87
2019-06-27T03:40:45.381Z,46.49
2019-06-27T03:43:11.750Z,46.61
2019-06-27T03:45:38.254Z,46.34
2019-06-27T03:48:04.593Z,46.15
2019-06-27T03:50:31.012Z,47.45
2019-06-27T03:52:57.477Z,47.43
2019-06-27T03:55:23.847Z,47.91
2019-06-27T03:57:50.159Z,47.83
2019-06-27T04:00:25.064Z,47.44
2019-06-27T04:02:51.395Z,46.95
2019-06-27T04:05:17.736Z,46.36
2019-06-27T04:07:44.404Z,46.31
2019-06-27T04:10:10.941Z,47.64
2019-06-27T04:12:37.309Z,48.23
2019-06-27T04:15:06.576Z,48.68
2019-06-27T04:17:34.341Z,48.74
2019-06-27T04:20:00.832Z,49.20
2019-06-27T04:22:27.188Z,48.41
2019-06-27T04:24:53.607Z,48.01
2019-06-27T04:27:19.941Z,47.59
2019-06-27T04:29:46.341Z,47.88
2019-06-27T04:32:12.762Z,49.42
2019-06-27T04:34:39.431Z,49.92
2019-06-27T04:37:05.766Z,50.62
2019-06-27T04:39:32.202Z,50.38
2019-06-27T04:41:58.890Z,50.34
2019-06-27T04:44:25.338Z,50.58
2019-06-27T04:46:51.660Z,51.78
2019-06-27T04:49:17.996Z,53.10
2019-06-27T04:51:44.703Z,54.48
2019-06-27T04:54:11.015Z,53.65
2019-06-27T04:56:37.386Z,53.42
2019-06-27T04:59:03.685Z,52.19
2019-06-27T05:01:35.697Z,50.97
2019-06-27T05:04:02.024Z,51.76
2019-06-27T05:06:28.345Z,52.14
2019-06-27T05:08:54.691Z,52.20
2019-06-27T05:11:21.021Z,52.83
2019-06-27T05:13:47.381Z,52.24
2019-06-27T05:16:13.779Z,51.65
2019-06-27T05:18:40.197Z,50.62
2019-06-27T05:21:06.585Z,50.95
2019-06-27T05:23:32.965Z,50.51
2019-06-27T05:25:59.304Z,52.20
2019-06-27T05:28:25.634Z,51.27
2019-06-27T05:30:52.122Z,51.08
2019-06-27T05:33:18.985Z,51.25
2019-06-27T05:35:45.314Z,52.85
2019-06-27T05:38:11.685Z,52.31
2019-06-27T05:40:37.972Z,53.00
2019-06-27T05:43:04.297Z,54.35
2019-06-27T05:45:30.628Z,52.94
2019-06-27T05:47:56.970Z,52.20
2019-06-27T05:50:24.599Z,52.01
2019-06-27T05:52:50.956Z,51.67
2019-06-27T05:55:17.296Z,51.22
2019-06-27T05:57:43.647Z,52.55
2019-06-27T06:00:26.703Z,53.01
2019-06-27T06:02:38.828Z,52.03
2019-06-27T06:05:06.592Z,52.00
2019-06-27T06:07:32.980Z,52.59
2019-06-27T06:09:59.304Z,50.67
2019-06-27T06:12:26.047Z,50.59
2019-06-27T06:14:52.376Z,50.72
2019-06-27T06:17:18.710Z,51.11
2019-06-27T06:19:45.007Z,51.07
2019-06-27T06:22:11.337Z,52.31
2019-06-27T06:24:39.097Z,53.07
2019-06-27T06:27:05.410Z,52.40
2019-06-27T06:29:31.767Z,52.92
2019-06-27T06:31:58.089Z,55.00
2019-06-27T06:34:24.530Z,53.95
2019-06-27T06:36:50.864Z,54.96
2019-06-27T06:39:17.522Z,54.68
2019-06-27T06:41:43.874Z,52.87
2019-06-27T06:44:11.409Z,52.08
2019-06-27T06:46:37.790Z,51.72
2019-06-27T06:49:04.382Z,50.70
2019-06-27T06:51:31.045Z,51.72
2019-06-27T06:53:58.557Z,52.18
2019-06-27T06:56:25.225Z,51.26
2019-06-27T06:58:51.570Z,52.01
2019-06-27T07:01:17.900Z,53.77
2019-06-27T07:03:44.227Z,51.05
2019-06-27T07:06:10.622Z,49.96
2019-06-27T07:08:37.039Z,49.91
2019-06-27T07:11:03.463Z,50.48
2019-06-27T07:13:29.958Z,48.97
2019-06-27T07:15:56.294Z,48.04
2019-06-27T07:18:22.649Z,46.50
2019-06-27T07:20:48.975Z,46.87
2019-06-27T07:23:15.446Z,45.64
2019-06-27T07:25:41.991Z,45.89
2019-06-27T07:28:08.430Z,47.48
2019-06-27T07:30:34.760Z,48.50
2019-06-27T07:33:02.116Z,47.66
2019-06-27T07:35:28.427Z,46.87
2019-06-27T07:37:55.140Z,46.79
2019-06-27T07:40:21.496Z,46.61
2019-06-27T07:42:47.830Z,47.10
2019-06-27T07:45:14.659Z,45.24
2019-06-27T07:47:41.005Z,45.07
2019-06-27T07:50:08.043Z,45.59
2019-06-27T07:52:34.423Z,45.87
2019-06-27T07:55:00.807Z,46.48
2019-06-27T07:57:28.215Z,46.03
2019-06-27T07:59:54.833Z,45.12
2019-06-27T08:02:21.470Z,45.92
2019-06-27T08:04:47.790Z,46.91
2019-06-27T08:07:14.149Z,47.43
2019-06-27T08:09:40.491Z,49.35
2019-06-27T08:12:06.850Z,48.88
2019-06-27T08:14:33.173Z,48.67
2019-06-27T08:16:59.537Z,47.64
2019-06-27T08:19:26.015Z,47.63
2019-06-27T08:21:52.367Z,45.83
2019-06-27T08:24:18.737Z,43.57
2019-06-27T08:26:45.042Z,44.02
2019-06-27T08:29:11.516Z,43.33
2019-06-27T08:31:50.511Z,42.06
2019-06-27T08:34:06.076Z,43.17
2019-06-27T08:36:32.454Z,41.40
2019-06-27T08:38:58.756Z,41.51
2019-06-27T08:41:25.084Z,43.14
2019-06-27T08:43:51.403Z,43.13
2019-06-27T08:46:17.728Z,40.34
2019-06-27T08:48:44.053Z,40.26
2019-06-27T08:51:10.371Z,39.09
2019-06-27T08:53:36.691Z,41.19
2019-06-27T08:56:03.152Z,40.26
2019-06-27T08:58:29.485Z,40.99
2019-06-27T09:00:55.900Z,40.34
2019-06-27T09:03:22.209Z,38.81
2019-06-27T09:05:48.539Z,37.75
2019-06-27T09:08:15.176Z,38.00
2019-06-27T09:10:41.510Z,37.94
2019-06-27T09:13:07.860Z,37.66
2019-06-27T09:15:34.170Z,36.86
2019-06-27T09:18:00.511Z,36.79
2019-06-27T09:20:26.886Z,36.46
2019-06-27T09:22:53.630Z,36.08
2019-06-27T09:25:19.944Z,37.69
2019-06-27T09:27:46.298Z,36.86
2019-06-27T09:30:13.296Z,38.46
2019-06-27T09:32:39.632Z,39.26
2019-06-27T09:35:06.794Z,37.72
2019-06-27T09:37:33.117Z,35.67
2019-06-27T09:39:59.487Z,36.60
2019-06-27T09:42:26.955Z,35.69
2019-06-27T09:44:53.298Z,35.18
2019-06-27T09:47:19.610Z,35.41
2019-06-27T09:49:45.948Z,34.79
2019-06-27T09:52:12.266Z,34.09
2019-06-27T09:54:38.605Z,33.19
2019-06-27T09:57:04.944Z,33.77
2019-06-27T09:59:32.045Z,34.78
2019-06-27T10:01:59.370Z,30.47
2019-06-27T10:04:25.703Z,31.69
2019-06-27T10:06:52.176Z,32.80
2019-06-27T10:09:18.484Z,33.20
2019-06-27T10:11:44.833Z,32.89
2019-06-27T10:14:11.166Z,33.52
2019-06-27T10:16:37.468Z,33.78
2019-06-27T10:19:03.825Z,31.74
2019-06-27T10:21:30.113Z,31.54
2019-06-27T10:23:56.498Z,31.67
2019-06-27T10:26:22.804Z,31.59
2019-06-27T10:28:49.144Z,31.64
2019-06-27T10:31:15.464Z,31.70
2019-06-27T10:33:41.845Z,31.63
2019-06-27T10:36:08.606Z,31.73
2019-06-27T10:38:34.956Z,30.65
2019-06-27T10:41:01.270Z,30.72
2019-06-27T10:43:28.641Z,30.42
2019-06-27T10:45:55.016Z,29.93
2019-06-27T10:48:21.366Z,29.49
2019-06-27T10:50:47.747Z,29.32
2019-06-27T10:53:14.923Z,30.67
2019-06-27T10:55:41.795Z,30.47
2019-06-27T10:58:08.527Z,31.62
2019-06-27T11:00:34.864Z,30.17
2019-06-27T11:03:14.368Z,30.37
2019-06-27T11:05:30.626Z,30.84
2019-06-27T11:07:58.358Z,30.59
2019-06-27T11:10:25.070Z,30.14
2019-06-27T11:12:51.368Z,29.65
2019-06-27T11:15:17.964Z,30.18
2019-06-27T11:17:44.620Z,29.58
2019-06-27T11:20:15.126Z,28.92
2019-06-27T11:22:40.481Z,28.53
2019-06-27T11:25:07.021Z,28.93
2019-06-27T11:27:33.389Z,29.21
2019-06-27T11:29:59.712Z,28.20
2019-06-27T11:32:26.091Z,27.96
2019-06-27T11:34:52.549Z,27.29
2019-06-27T11:37:18.886Z,28.18
2019-06-27T11:39:45.228Z,27.82
2019-06-27T11:42:11.616Z,29.11
2019-06-27T11:44:38.012Z,28.81
2019-06-27T11:47:04.643Z,27.79
2019-06-27T11:49:31.005Z,27.56
2019-06-27T11:51:57.303Z,27.75
2019-06-27T11:54:23.692Z,25.86
2019-06-27T11:56:50.030Z,23.92
2019-06-27T11:59:16.352Z,23.64
2019-06-27T12:01:42.736Z,23.17
2019-06-27T12:04:09.364Z,22.23
2019-06-27T12:06:35.982Z,20.51
2019-06-27T12:09:04.322Z,18.59
2019-06-27T12:11:33.645Z,18.64
2019-06-27T12:14:00.115Z,17.18
2019-06-27T12:16:26.451Z,14.73
2019-06-27T12:18:52.762Z,15.04
2019-06-27T12:21:19.419Z,13.49
2019-06-27T12:23:45.797Z,12.69
2019-06-27T12:26:12.219Z,11.21
2019-06-27T12:28:38.567Z,11.90
2019-06-27T12:31:19.365Z,12.10
2019-06-27T12:33:33.664Z,11.55
2019-06-27T12:36:00.050Z,11.82
2019-06-27T12:38:26.567Z,12.40
2019-06-27T12:40:52.878Z,13.14
2019-06-27T12:43:19.256Z,11.20
2019-06-27T12:45:45.562Z,9.72
2019-06-27T12:48:11.918Z,9.10
2019-06-27T12:50:38.220Z,8.67
2019-06-27T12:53:04.556Z,8.67
2019-06-27T12:55:30.996Z,9.92
2019-06-27T12:57:57.364Z,11.02
2019-06-27T13:00:24.077Z,11.06
2019-06-27T13:02:50.409Z,10.74
2019-06-27T13:05:20.294Z,10.32
2019-06-27T13:07:45.004Z,10.40
2019-06-27T13:10:12.034Z,10.98
2019-06-27T13:12:38.773Z,10.29
2019-06-27T13:15:06.534Z,10.28
2019-06-27T13:17:32.860Z,10.56
2019-06-27T13:19:59.311Z,10.45
2019-06-27T13:22:25.698Z,9.61
2019-06-27T13:24:52.020Z,10.01
2019-06-27T13:27:18.362Z,9.76
2019-06-27T13:29:44.698Z,9.89
2019-06-27T13:32:11.479Z,10.64
2019-06-27T13:34:40.900Z,11.04
2019-06-27T13:37:07.241Z,9.12
2019-06-27T13:39:33.580Z,8.85
2019-06-27T13:41:59.904Z,9.66
2019-06-27T13:44:26.293Z,9.31
2019-06-27T13:46:52.627Z,9.18
2019-06-27T13:49:19.000Z,8.30
2019-06-27T13:51:45.394Z,7.47
2019-06-27T13:54:11.845Z,9.82
2019-06-27T13:56:38.206Z,9.89
2019-06-27T13:59:04.569Z,10.13
2019-06-27T14:01:30.889Z,9.68
2019-06-27T14:03:57.247Z,9.93
2019-06-27T14:06:23.702Z,10.14
2019-06-27T14:08:50.102Z,9.89
2019-06-27T14:11:16.456Z,8.89
2019-06-27T14:13:42.799Z,8.46
2019-06-27T14:16:10.390Z,8.75
2019-06-27T14:18:38.655Z,8.89
2019-06-27T14:21:05.007Z,8.75
2019-06-27T14:23:31.589Z,8.67
2019-06-27T14:25:58.304Z,9.30
2019-06-27T14:28:24.682Z,9.78
2019-06-27T14:30:51.010Z,9.46
2019-06-27T14:33:17.424Z,8.30
2019-06-27T14:35:43.741Z,7.11
2019-06-27T14:38:10.923Z,7.95
2019-06-27T14:40:37.370Z,7.75
2019-06-27T14:43:03.762Z,7.73
2019-06-27T14:45:30.083Z,8.08
2019-06-27T14:47:56.392Z,8.59
2019-06-27T14:50:22.772Z,8.13
2019-06-27T14:52:49.373Z,8.94
2019-06-27T14:55:15.938Z,8.48
2019-06-27T14:57:42.286Z,7.59
2019-06-27T15:00:09.458Z,9.50
2019-06-27T15:02:35.788Z,8.73
2019-06-27T15:05:04.348Z,8.31
2019-06-27T15:07:36.479Z,8.62
2019-06-27T15:10:05.519Z,9.65
2019-06-27T15:12:35.634Z,8.21
2019-06-27T15:15:00.126Z,8.35
2019-06-27T15:17:26.455Z,8.65
2019-06-27T15:19:52.818Z,9.15
2019-06-27T15:22:19.474Z,9.59
2019-06-27T15:24:46.111Z,9.86
2019-06-27T15:27:12.452Z,9.26
2019-06-27T15:29:38.850Z,8.96
2019-06-27T15:32:05.200Z,9.97
2019-06-27T15:34:31.553Z,10.79
2019-06-27T15:36:58.061Z,10.90
2019-06-27T15:39:24.827Z,10.77
2019-06-27T15:41:51.463Z,10.84
2019-06-27T15:44:20.623Z,10.73
2019-06-27T15:46:46.540Z,9.98
2019-06-27T15:49:12.900Z,10.56
2019-06-27T15:51:39.789Z,9.68
2019-06-27T15:54:06.386Z,10.62
2019-06-27T15:56:32.723Z,11.55
2019-06-27T15:58:59.096Z,11.33
2019-06-27T16:01:25.421Z,10.68
2019-06-27T16:03:51.803Z,9.36
2019-06-27T16:06:18.139Z,9.61
2019-06-27T16:08:44.457Z,9.49
2019-06-27T16:11:10.812Z,10.69
2019-06-27T16:13:37.124Z,11.61
2019-06-27T16:16:03.508Z,11.29
2019-06-27T16:18:29.828Z,10.59
2019-06-27T16:20:56.159Z,11.59
2019-06-27T16:23:22.472Z,10.75
2019-06-27T16:25:49.112Z,10.74
2019-06-27T16:28:15.448Z,11.02
2019-06-27T16:30:42.292Z,10.64
2019-06-27T16:33:08.641Z,11.72
2019-06-27T16:35:35.314Z,11.63
2019-06-27T16:38:01.667Z,10.63
2019-06-27T16:40:31.313Z,11.40
2019-06-27T16:42:57.676Z,11.80
2019-06-27T16:45:24.137Z,11.59
2019-06-27T16:47:50.464Z,10.58
2019-06-27T16:50:17.454Z,11.08
2019-06-27T16:52:43.761Z,12.40
2019-06-27T16:55:10.556Z,12.06
2019-06-27T16:57:37.190Z,12.53
2019-06-27T17:00:04.352Z,12.06
2019-06-27T17:02:31.148Z,11.78
2019-06-27T17:04:57.491Z,11.09
2019-06-27T17:07:24.150Z,11.93
2019-06-27T17:09:50.461Z,12.95
2019-06-27T17:12:16.883Z,13.40
2019-06-27T17:14:43.575Z,13.52
2019-06-27T17:17:09.955Z,13.11
2019-06-27T17:19:36.291Z,12.67
2019-06-27T17:22:02.723Z,13.32
2019-06-27T17:24:29.236Z,13.39
2019-06-27T17:26:55.593Z,13.12
2019-06-27T17:29:21.926Z,13.16
2019-06-27T17:31:48.315Z,13.94
2019-06-27T17:34:14.775Z,14.56
2019-06-27T17:36:53.585Z,15.79
2019-06-27T17:39:09.406Z,14.83
2019-06-27T17:41:35.754Z,15.28
2019-06-27T17:44:02.087Z,14.93
2019-06-27T17:46:28.436Z,13.83
2019-06-27T17:48:54.785Z,13.40
2019-06-27T17:51:21.145Z,14.57
2019-06-27T17:53:47.493Z,15.36
2019-06-27T17:56:13.876Z,15.24
2019-06-27T17:58:40.181Z,16.04
2019-06-27T18:01:06.525Z,15.26
2019-06-27T18:03:32.848Z,15.14
2019-06-27T18:05:59.210Z,16.25
2019-06-27T18:08:25.603Z,18.22
2019-06-27T18:10:53.047Z,18.21
2019-06-27T18:13:19.791Z,18.12
2019-06-27T18:15:46.411Z,18.13
2019-06-27T18:18:13.120Z,17.07
2019-06-27T18:20:39.541Z,16.70
2019-06-27T18:23:05.908Z,17.64
2019-06-27T18:25:32.231Z,18.79
2019-06-27T18:27:58.914Z,20.04
2019-06-27T18:30:25.244Z,21.72
2019-06-27T18:32:51.637Z,23.04
2019-06-27T18:35:18.120Z,24.72
2019-06-27T18:37:44.606Z,25.16
2019-06-27T18:40:13.899Z,25.55
2019-06-27T18:42:40.574Z,26.21
2019-06-27T18:45:07.488Z,26.89
2019-06-27T18:47:33.871Z,27.27
2019-06-27T18:50:00.230Z,27.78
2019-06-27T18:52:26.615Z,28.60
2019-06-27T18:54:53.007Z,29.14
2019-06-27T18:57:19.417Z,29.54
2019-06-27T18:59:47.009Z,30.08
2019-06-27T19:02:16.434Z,30.49
2019-06-27T19:04:43.247Z,30.36
2019-06-27T19:07:09.756Z,30.86
2019-06-27T19:09:36.082Z,31.24
2019-06-27T19:12:02.673Z,31.66
2019-06-27T19:14:29.649Z,31.96
2019-06-27T19:16:56.097Z,32.67
2019-06-27T19:19:33.337Z,32.90
2019-06-27T19:22:04.330Z,33.05
2019-06-27T19:24:32.574Z,33.90
2019-06-27T19:26:59.416Z,33.83
2019-06-27T19:29:26.156Z,34.61
2019-06-27T19:31:52.560Z,34.53
2019-06-27T19:34:18.893Z,34.71
2019-06-27T19:36:45.251Z,35.19
2019-06-27T19:39:12.830Z,35.28
2019-06-27T19:41:40.291Z,35.57
2019-06-27T19:44:07.522Z,35.89
2019-06-27T19:46:33.828Z,36.44
2019-06-27T19:49:00.175Z,36.67
2019-06-27T19:51:26.515Z,36.80
2019-06-27T19:53:52.875Z,36.83
2019-06-27T19:56:19.252Z,36.84
2019-06-27T19:58:45.650Z,37.25
2019-06-27T20:01:11.983Z,37.74
2019-06-27T20:03:38.368Z,37.75
2019-06-27T20:06:04.710Z,37.73
2019-06-27T20:08:31.059Z,38.25
2019-06-27T20:10:57.466Z,38.16
2019-06-27T20:13:24.111Z,38.45
2019-06-27T20:15:50.478Z,39.10
2019-06-27T20:18:17.002Z,39.00
2019-06-27T20:20:43.318Z,38.62
2019-06-27T20:23:09.817Z,38.44
2019-06-27T20:25:36.211Z,39.32
2019-06-27T20:28:02.597Z,39.50
2019-06-27T20:30:29.465Z,39.34
2019-06-27T20:32:55.820Z,39.35
2019-06-27T20:35:23.270Z,39.22
2019-06-27T20:37:49.816Z,39.64
2019-06-27T20:40:16.795Z,39.99
2019-06-27T20:42:43.159Z,39.90
2019-06-27T20:45:11.952Z,39.95
2019-06-27T20:47:39.273Z,40.55
2019-06-27T20:50:06.914Z,40.72
2019-06-27T20:52:33.643Z,40.67
2019-06-27T20:54:59.962Z,41.08
2019-06-27T20:57:26.290Z,41.06
2019-06-27T20:59:53.710Z,40.94
2019-06-27T21:02:20.052Z,41.11
2019-06-27T21:04:46.659Z,41.22
2019-06-27T21:07:13.009Z,41.25
2019-06-27T21:09:39.467Z,41.33
2019-06-27T21:12:05.774Z,41.56
2019-06-27T21:14:32.514Z,41.61
2019-06-27T21:16:58.846Z,41.66
2019-06-27T21:19:25.305Z,41.92
2019-06-27T21:21:51.641Z,42.14
2019-06-27T21:24:18.521Z,42.09
2019-06-27T21:26:44.868Z,42.31
2019-06-27T21:29:11.216Z,42.48
2019-06-27T21:31:38.026Z,42.44
2019-06-27T21:34:04.383Z,42.49
2019-06-27T21:36:30.931Z,42.98
2019-06-27T21:39:07.023Z,42.81
2019-06-27T21:41:25.486Z,42.91
2019-06-27T21:43:51.989Z,43.27
2019-06-27T21:46:18.293Z,43.54
2019-06-27T21:48:44.771Z,43.57
2019-06-27T21:51:11.127Z,43.22
2019-06-27T21:53:37.527Z,43.21
2019-06-27T21:56:03.920Z,43.48
2019-06-27T21:58:30.469Z,44.23
2019-06-27T22:00:57.373Z,44.42
2019-06-27T22:03:24.254Z,44.98
2019-06-27T22:05:50.687Z,44.99
2019-06-27T22:08:17.028Z,44.95
2019-06-27T22:10:43.340Z,45.48
2019-06-27T22:13:09.675Z,45.63
2019-06-27T22:15:36.056Z,45.83
2019-06-27T22:18:02.714Z,45.81
2019-06-27T22:20:29.039Z,45.94
2019-06-27T22:22:55.371Z,46.06
2019-06-27T22:25:21.769Z,46.27
2019-06-27T22:27:48.125Z,46.79
2019-06-27T22:30:15.788Z,47.14
2019-06-27T22:32:42.149Z,46.92
2019-06-27T22:35:10.508Z,47.32
2019-06-27T22:37:37.813Z,47.18
2019-06-27T22:40:24.584Z,47.19
2019-06-27T22:43:10.082Z,47.38
2019-06-27T22:45:54.827Z,47.61
2019-06-27T22:48:21.082Z,47.92
2019-06-27T22:50:47.511Z,48.21
2019-06-27T22:53:15.773Z,48.70
2019-06-27T22:55:42.101Z,48.85
2019-06-27T22:58:08.429Z,48.71
2019-06-27T23:00:34.951Z,49.20
2019-06-27T23:03:01.292Z,49.20
2019-06-27T23:05:28.055Z,49.46
2019-06-27T23:07:56.147Z,49.74
2019-06-27T23:10:22.518Z,50.10
2019-06-27T23:12:49.245Z,49.99
2019-06-27T23:15:15.670Z,50.28
2019-06-27T23:17:42.060Z,50.27
2019-06-27T23:20:08.760Z,50.99
2019-06-27T23:22:35.123Z,51.39
2019-06-27T23:25:01.422Z,51.62
2019-06-27T23:27:27.793Z,51.26
2019-06-27T23:29:54.469Z,51.40
2019-06-27T23:32:20.821Z,51.23
2019-06-27T23:34:47.230Z,51.24
2019-06-27T23:37:13.865Z,51.03
2019-06-27T23:39:40.201Z,51.57
2019-06-27T23:42:06.628Z,51.69
2019-06-27T23:44:32.968Z,51.24
2019-06-27T23:46:59.437Z,51.93
2019-06-27T23:49:25.772Z,52.43
2019-06-27T23:51:52.167Z,52.07
2019-06-27T23:54:18.527Z,51.59
2019-06-27T23:56:44.891Z,52.47
2019-06-27T23:59:11.256Z,52.89
